»·PEaware :: N52KA L88-KSBP

N52KA :: L88-KSBP

FLIGHT INFORMATION

Flight Status: Arrived
Operator: Privately registered:
United States
More flights under this callsign
Pilot: Carson T. (20437)
Aircraft: CESSNA 172 SKYHAWK
(C172)
More flights by this aircraft type
Origin: L88 New Cuyama
United States
Destination: KSBP San Luis Co Regl
United States
More flights between these airports :: More routes between these airports
Route: +
File this flight plan on PilotEdge
Remarks:
Altitude:
(Current/Filed)
4,500ft
Speed:
(Current/Filed)
110kts
Departed: 14-Sep-18 02:06 PM
Arrived: 14-Sep-18 02:21 PM
Distance/Time
Traveled:
50nm/0:15
Distance/Time
To Go:
Arrived

Flight Plot

Page will automatically refresh every two minutes.


Map Options




Map Legend


Flown Route
Filed Route
Departure Airport
Arrival Airport
Navaid (VOR, NDB)
Fix

Horizontal Profiles

Position Reports

Time Latitude Longitude Heading Altitude Ground
Speed
14-Sep-18 13:31 35.237966 -120.639040 359 215ft 0kts
14-Sep-18 13:32 35.237966 -120.639040 359 215ft 0kts
14-Sep-18 13:33 35.237966 -120.639040 359 215ft 0kts
14-Sep-18 13:34 35.237966 -120.639040 359 215ft 0kts
14-Sep-18 13:35 35.237966 -120.639040 359 215ft 0kts
14-Sep-18 13:36 35.237966 -120.639040 359 215ft 0kts
14-Sep-18 13:37 35.237966 -120.639040 359 215ft 0kts
14-Sep-18 13:38 35.237966 -120.639040 359 215ft 0kts
14-Sep-18 13:39 35.237966 -120.639040 359 215ft 0kts
14-Sep-18 13:40 35.237966 -120.639040 359 215ft 0kts
14-Sep-18 13:41 35.237966 -120.639040 359 215ft 0kts
14-Sep-18 13:42 35.237966 -120.639040 359 215ft 0kts
14-Sep-18 13:43 35.237966 -120.639040 359 215ft 0kts
14-Sep-18 13:44 35.237966 -120.639040 359 215ft 0kts
14-Sep-18 13:45 35.237966 -120.639040 359 215ft 0kts
14-Sep-18 13:46 35.237966 -120.639040 359 215ft 0kts
14-Sep-18 13:47 35.237966 -120.639040 359 215ft 0kts
14-Sep-18 13:48 35.237966 -120.639040 359 215ft 0kts
14-Sep-18 13:49 35.237966 -120.639040 359 215ft 0kts
14-Sep-18 13:50 35.237966 -120.639040 359 215ft 0kts
14-Sep-18 13:51 35.237966 -120.639040 359 215ft 0kts
14-Sep-18 13:52 35.237966 -120.639040 359 215ft 0kts
14-Sep-18 13:53 35.237966 -120.639040 359 215ft 0kts
14-Sep-18 13:54 35.237966 -120.639040 359 215ft 0kts
14-Sep-18 13:55 35.237966 -120.639040 359 215ft 0kts
14-Sep-18 13:56 35.237967 -120.639040 359 215ft 0kts
14-Sep-18 13:57 35.237969 -120.639040 359 215ft 0kts
14-Sep-18 13:58 35.237971 -120.639040 359 215ft 0kts
14-Sep-18 13:59 35.237973 -120.639040 359 215ft 0kts
14-Sep-18 14:00 35.237975 -120.639040 359 215ft 0kts
14-Sep-18 14:01 35.237977 -120.639040 359 215ft 0kts
14-Sep-18 14:02 35.237979 -120.639040 359 215ft 0kts
14-Sep-18 14:03 35.237455 -120.639275 148 215ft 5kts
14-Sep-18 14:04 35.237127 -120.638721 125 215ft 13kts
14-Sep-18 14:05 35.234582 -120.634094 123 215ft 15kts
14-Sep-18 14:06 35.233248 -120.632652 213 215ft 0kts
14-Sep-18 14:07 35.232841 -120.633147 291 215ft 7kts
14-Sep-18 14:08 35.243576 -120.651464 303 671ft 85kts
14-Sep-18 14:09 35.229763 -120.668531 132 1111ft 105kts
14-Sep-18 14:10 35.213583 -120.641156 124 1263ft 86kts
14-Sep-18 14:11 35.226543 -120.625516 2 629ft 64kts
14-Sep-18 14:12 35.237431 -120.641163 305 284ft 78kts
14-Sep-18 14:13 35.245846 -120.665887 223 888ft 100kts
14-Sep-18 14:14 35.224813 -120.655332 129 1245ft 108kts
14-Sep-18 14:15 35.210858 -120.628699 45 1202ft 88kts
14-Sep-18 14:16 35.227948 -120.624616 304 564ft 60kts
14-Sep-18 14:17 35.238008 -120.642161 305 284ft 78kts
14-Sep-18 14:18 35.245784 -120.666497 215 913ft 97kts
14-Sep-18 14:19 35.223537 -120.667376 126 1272ft 110kts
14-Sep-18 14:20 35.206266 -120.639492 126 1262ft 86kts
14-Sep-18 14:21 35.220152 -120.621834 26 880ft 74kts
14-Sep-18 14:22 35.233487 -120.634265 304 238ft 58kts
14-Sep-18 14:23 35.237438 -120.640177 3 215ft 0kts
14-Sep-18 14:24 35.238134 -120.639807 56 215ft 8kts
14-Sep-18 14:25 35.238276 -120.639161 258 215ft 0kts
14-Sep-18 14:26 35.238274 -120.639173 270 215ft 0kts
14-Sep-18 14:27 35.238274 -120.639173 270 215ft 0kts
14-Sep-18 14:28 35.238274 -120.639173 270 215ft 0kts
14-Sep-18 14:29 35.238274 -120.639173 270 215ft 0kts
14-Sep-18 14:30 35.238274 -120.639173 270 215ft 0kts
14-Sep-18 14:31 35.238274 -120.639173 270 215ft 0kts
14-Sep-18 14:32 35.238274 -120.639173 270 215ft 0kts
14-Sep-18 14:33 35.238274 -120.639173 270 215ft 0kts
14-Sep-18 14:34 35.238274 -120.639173 270 215ft 0kts
14-Sep-18 14:35 35.238274 -120.639173 270 215ft 0kts
14-Sep-18 14:36 35.238274 -120.639173 270 215ft 0kts
14-Sep-18 14:37 35.238274 -120.639173 270 215ft 0kts

Navigation Log

Ident Type
1. L88 Airport
2. KSBP Airport